CDT,Max TemperatureF,Mean TemperatureF,Min TemperatureF,Max Dew PointF,MeanDew PointF,Min DewpointF,Max Humidity, Mean Humidity, Min Humidity, Max Sea Level PressureIn, Mean Sea Level PressureIn, Min Sea Level PressureIn, Max VisibilityMiles, Mean VisibilityMiles, Min VisibilityMiles, Max Wind SpeedMPH, Mean Wind SpeedMPH, Max Gust SpeedMPH,PrecipitationIn, CloudCover, Events, WindDirDegrees
2013-10-1,86,78,71,73,70,68,94,76,61,30.05,30.02,29.97,10,10,10,16,8,,0.00,5,,97
2013-10-2,84,79,74,75,73,72,94,87,68,30.07,30.03,29.98,10,10,6,13,6,,0.07,5,Rain-Thunderstorm,90
2013-10-3,87,80,73,76,73,71,100,86,64,30.06,30.00,29.97,10,10,5,18,8,29,0.02,4,Rain,106
2013-10-4,87,80,73,76,74,72,95,82,67,30.06,30.02,29.98,10,10,10,16,7,20,0.00,2,Rain,139
2013-10-5,87,80,75,76,74,71,96,82,60,30.03,29.98,29.93,10,10,9,16,8,22,0.02,3,Rain,126
2013-10-6,83,76,69,76,73,58,100,89,69,29.92,29.87,29.80,10,7,0,21,11,26,1.98,6,Fog-Rain-Thunderstorm,174
2013-10-7,76,68,61,58,53,48,75,59,37,30.04,29.96,29.91,10,10,10,16,13,24,0.00,1,,360
2013-10-8,78,66,55,58,55,52,87,67,45,30.05,30.02,29.98,10,10,9,10,7,,0.00,0,,13
2013-10-9,82,72,62,70,65,57,94,81,65,30.10,30.06,30.00,10,10,10,13,6,,0.00,3,,67
2013-10-10,82,74,66,70,67,64,100,83,57,30.13,30.07,30.02,10,10,5,10,8,,0.00,4,,92
2013-10-11,83,74,66,70,69,65,100,88,60,30.08,30.02,29.99,10,7,0,12,3,,0.00,0,Fog,83
2013-10-12,83,76,68,71,68,66,95,75,54,30.11,30.06,30.01,10,10,10,9,5,,0.00,1,,213
2013-10-13,85,77,69,73,70,67,94,80,56,30.18,30.12,30.08,10,10,10,9,4,,0.00,2,,16
2013-10-14,84,75,66,68,65,60,93,73,44,30.13,30.08,30.04,10,10,10,9,5,,0.00,0,,78
2013-10-15,82,74,67,68,66,64,90,74,62,30.07,30.03,29.98,10,10,10,10,6,,0.00,0,Rain,125
2013-10-16,82,75,68,70,67,65,92,73,61,30.03,29.98,29.95,10,10,10,12,7,,0.00,4,,174
2013-10-17,85,75,66,74,70,61,92,77,66,29.99,29.94,29.91,10,10,7,14,8,23,0.01,6,Rain,275
2013-10-18,77,70,63,61,60,57,90,77,53,30.05,29.99,29.94,10,10,10,12,9,,0.00,6,,22
2013-10-19,68,64,60,64,60,57,100,88,73,30.03,29.98,29.93,10,9,1,13,8,,0.48,7,Rain,17
2013-10-20,74,64,54,58,56,52,94,78,51,30.08,30.03,30.00,10,10,10,12,8,,0.00,2,,27
2013-10-21,72,66,60,61,58,55,85,75,62,30.08,30.03,29.99,10,10,10,8,6,,0.00,6,,53
2013-10-22,80,71,62,62,58,54,89,69,42,29.99,29.96,29.91,10,10,10,9,6,,0.00,2,,8
2013-10-23,75,67,59,56,47,41,82,54,31,30.15,30.08,30.00,10,10,10,13,9,21,0.00,0,,352
2013-10-24,72,60,49,60,50,44,92,66,39,30.24,30.19,30.11,10,10,10,10,4,,0.00,0,,32
2013-10-25,67,59,50,55,44,38,81,60,34,30.39,30.33,30.24,10,10,10,17,9,25,0.00,0,,30
2013-10-26,70,57,44,54,40,32,90,57,25,30.31,30.25,30.18,10,10,10,9,6,,0.00,0,,72
2013-10-27,75,62,51,63,56,46,92,76,50,30.18,30.13,30.09,10,10,7,9,3,,0.05,2,Rain,88
2013-10-28,79,68,57,65,62,56,96,80,56,30.22,30.17,30.10,10,10,10,9,4,,0.00,0,,109
2013-10-29,78,69,60,66,64,60,97,81,57,30.27,30.22,30.19,10,10,10,13,5,,0.00,1,,95
2013-10-30,80,72,64,70,67,64,100,82,66,30.22,30.14,30.08,10,10,10,14,7,,0.00,1,,122
2013-10-31,79,74,71,73,71,69,100,89,74,30.06,29.92,29.84,10,8,1,17,10,23,0.67,4,Rain,196